Tula, MS (38675)

5:07 AM CDT on August 02, 2014 (GMT -0500)
University-Oxford (KUOX) Elev 453 ft | 34.38 °N, 89.54 °W | Change Station

Current weather conditions updated 52 minutes ago

Clear
Clear
72 °F
Feels Like 72 °F
N
0
Wind Variable Wind from North

Today is forecast to be Warmer than yesterday. A few thunderstorms possible.

Today
High -- | Low -- °F
--% Chance of Precip.
Yesterday
High -- | Low -- °F
Precip. -- in
6:09 AM 7:58 PM
Waxing Crescent, 34% visible
Pressure 30.04 in
Visibility 10.0 miles
Clouds Clear
Dew Point 64 °F
Humidity 78%
Rainfall 0.00 in
Snow Depth Not available.
UV 0 out of 12
Pollen 4.90 out of 12
Air Quality Not available.
Flu Activity Not available.
METAR KUOX 020915Z AUTO 00000KT 10SM CLR 22/18 A3004 RMK AO2

More Conditions Fewer Conditions

Pressure 30.04 in
Visibility 10.0 miles
Clouds Clear
Dew Point 64 °F
Humidity 78%
Rainfall 0.00 in
Snow Depth Not available.
UV 0 out of 12
Pollen 4.90 out of 12
Air Quality Not available.
Flu Activity Not available.
METAR KUOX 020915Z AUTO 00000KT 10SM CLR 22/18 A3004 RMK AO2

More Conditions Fewer Conditions

10-Day Weather Forecast

Almanac

Astronomy

Aug. 02, 2014 Rise Set
Actual Time 6:09 AM CDT 7:58 PM CDT
Civil Twilight 5:42 AM CDT 8:26 PM CDT
Nautical Twilight 5:08 AM CDT 8:59 PM CDT
Astronomical Twilight 4:33 AM CDT 9:34 PM CDT
Moon 12:12 PM CDT 11:36 PM CDT
Length of Visible Light 14h 44m
Length of Day
13h 49m
Tomorrow will be 1m 38s shorter.
Waxing Crescent, 34% of the Moon is Illuminated
Today
Waxing Crescent
Aug 3
First Quarter
Aug 10
Full
Aug 17
Last Quarter
Aug 25
New

Today's Extremes

State Highs State Lows

Community

WunderPhotos

Upload Photos

1,739,850 photos uploaded!

Nearby

Snow Depth

Station Depth Elevation
No new snow has been reported.

Earthquake Activity

City Distance Mag. Time & Date
No recent earthquake activity has been reported nearby.
Minimum magnitude displayed is 2.5.

Coastal Water Temperatures

Place Temperature
No Stations Reporting

Nearby Weather Stations

Station Location Temp. Dew Point Humidity Wind Precip. Elev Updated Type
MesoWest GOODWIN CK PASTURE , Pope, MS 70 °F 68 °F 95% NNE  at  0 mph 0.00 in / hr 319 ft 4:00 AM CDT MADIS

Show More Stations Show Fewer Stations